sensor_id;sensor_type;location;lat;lon;timestamp;pressure;altitude;pressure_sealevel;temperature;humidity
27980;BME280;15315;50.836;4.430;2023-04-06T00:09:41;101239.38;;;13.20;41.49
27980;BME280;15315;50.836;4.430;2023-04-06T00:19:41;101228.25;;;13.24;41.30
27980;BME280;15315;50.836;4.430;2023-04-06T00:29:43;101229.75;;;13.16;41.15
27980;BME280;15315;50.836;4.430;2023-04-06T00:39:44;101218.44;;;12.98;40.74
27980;BME280;15315;50.836;4.430;2023-04-06T00:49:44;101208.78;;;12.94;41.31
27980;BME280;15315;50.836;4.430;2023-04-06T00:59:45;101201.50;;;12.71;41.59
27980;BME280;15315;50.836;4.430;2023-04-06T01:09:45;101190.94;;;13.04;41.76
27980;BME280;15315;50.836;4.430;2023-04-06T01:19:46;101188.44;;;13.01;41.72
27980;BME280;15315;50.836;4.430;2023-04-06T01:29:49;101169.25;;;13.17;41.55
27980;BME280;15315;50.836;4.430;2023-04-06T01:39:50;101161.03;;;13.06;41.56
27980;BME280;15315;50.836;4.430;2023-04-06T01:49:50;101156.06;;;12.99;41.22
27980;BME280;15315;50.836;4.430;2023-04-06T01:59:51;101145.88;;;13.03;40.86
27980;BME280;15315;50.836;4.430;2023-04-06T02:09:54;101133.81;;;12.83;41.47
27980;BME280;15315;50.836;4.430;2023-04-06T02:19:55;101125.19;;;12.78;41.59
27980;BME280;15315;50.836;4.430;2023-04-06T02:29:55;101120.59;;;12.79;42.02
27980;BME280;15315;50.836;4.430;2023-04-06T02:39:56;101111.16;;;12.61;42.30
27980;BME280;15315;50.836;4.430;2023-04-06T02:49:56;101106.50;;;12.63;42.47
27980;BME280;15315;50.836;4.430;2023-04-06T02:59:56;101100.63;;;12.69;42.26
27980;BME280;15315;50.836;4.430;2023-04-06T03:09:57;101094.13;;;12.71;42.67
27980;BME280;15315;50.836;4.430;2023-04-06T03:19:57;101082.47;;;12.58;42.93
27980;BME280;15315;50.836;4.430;2023-04-06T03:29:58;101074.47;;;12.44;43.54
27980;BME280;15315;50.836;4.430;2023-04-06T03:39:58;101068.53;;;12.39;43.75
27980;BME280;15315;50.836;4.430;2023-04-06T03:49:59;101063.56;;;12.33;43.84
27980;BME280;15315;50.836;4.430;2023-04-06T03:59:59;101057.06;;;12.35;44.05
27980;BME280;15315;50.836;4.430;2023-04-06T04:10:00;101061.47;;;12.49;43.59
27980;BME280;15315;50.836;4.430;2023-04-06T04:20:01;101072.00;;;12.28;44.08
27980;BME280;15315;50.836;4.430;2023-04-06T04:30:01;101071.47;;;12.23;44.65
27980;BME280;15315;50.836;4.430;2023-04-06T04:40:02;101070.53;;;11.99;45.38
27980;BME280;15315;50.836;4.430;2023-04-06T04:50:03;101077.31;;;12.05;45.80
27980;BME280;15315;50.836;4.430;2023-04-06T05:00:03;101073.69;;;12.67;44.12
27980;BME280;15315;50.836;4.430;2023-04-06T05:10:04;101078.09;;;12.81;44.25
27980;BME280;15315;50.836;4.430;2023-04-06T05:20:06;101076.09;;;12.95;44.17
27980;BME280;15315;50.836;4.430;2023-04-06T05:30:07;101081.44;;;13.08;44.61
27980;BME280;15315;50.836;4.430;2023-04-06T05:40:08;101073.63;;;13.16;45.13
27980;BME280;15315;50.836;4.430;2023-04-06T05:50:09;101072.91;;;13.25;45.29
27980;BME280;15315;50.836;4.430;2023-04-06T06:00:10;101074.44;;;13.40;45.87
27980;BME280;15315;50.836;4.430;2023-04-06T06:10:11;101075.81;;;13.46;45.72
27980;BME280;15315;50.836;4.430;2023-04-06T06:20:12;101078.03;;;13.41;46.01
27980;BME280;15315;50.836;4.430;2023-04-06T06:30:12;101079.44;;;12.99;47.67
27980;BME280;15315;50.836;4.430;2023-04-06T06:40:13;101079.13;;;13.38;50.41
27980;BME280;15315;50.836;4.430;2023-04-06T06:50:15;101066.50;;;13.50;53.36
27980;BME280;15315;50.836;4.430;2023-04-06T07:00:15;101064.97;;;13.35;56.23
27980;BME280;15315;50.836;4.430;2023-04-06T07:10:16;101066.31;;;13.64;56.96
27980;BME280;15315;50.836;4.430;2023-04-06T07:20:17;101059.88;;;13.54;60.74
27980;BME280;15315;50.836;4.430;2023-04-06T07:30:17;101064.75;;;13.84;62.36
27980;BME280;15315;50.836;4.430;2023-04-06T07:40:18;101059.72;;;14.01;64.88
27980;BME280;15315;50.836;4.430;2023-04-06T07:50:19;101062.09;;;14.06;66.88
27980;BME280;15315;50.836;4.430;2023-04-06T08:00:20;101056.41;;;13.98;70.31
27980;BME280;15315;50.836;4.430;2023-04-06T08:10:21;101053.31;;;13.91;73.27
27980;BME280;15315;50.836;4.430;2023-04-06T08:20:21;101058.56;;;13.59;76.09
27980;BME280;15315;50.836;4.430;2023-04-06T08:30:22;101058.25;;;13.97;75.81
27980;BME280;15315;50.836;4.430;2023-04-06T08:40:22;101052.19;;;13.48;80.41
27980;BME280;15315;50.836;4.430;2023-04-06T08:50:23;101050.56;;;13.34;81.32
27980;BME280;15315;50.836;4.430;2023-04-06T09:00:25;101043.47;;;13.90;82.55
27980;BME280;15315;50.836;4.430;2023-04-06T09:10:26;101053.63;;;13.06;88.12
27980;BME280;15315;50.836;4.430;2023-04-06T09:20:26;101033.22;;;13.37;92.90
27980;BME280;15315;50.836;4.430;2023-04-06T09:30:28;101024.63;;;14.00;88.80
27980;BME280;15315;50.836;4.430;2023-04-06T09:40:29;101028.84;;;13.58;89.80
27980;BME280;15315;50.836;4.430;2023-04-06T09:50:30;101019.19;;;13.43;92.86
27980;BME280;15315;50.836;4.430;2023-04-06T10:00:42;101016.03;;;12.90;99.27
27980;BME280;15315;50.836;4.430;2023-04-06T10:10:44;101010.34;;;13.52;98.01
27980;BME280;15315;50.836;4.430;2023-04-06T10:21:01;101001.03;;;13.32;100.00
27980;BME280;15315;50.836;4.430;2023-04-06T10:31:05;101002.94;;;13.78;96.51
27980;BME280;15315;50.836;4.430;2023-04-06T10:41:10;100997.88;;;14.29;96.96
27980;BME280;15315;50.836;4.430;2023-04-06T10:51:15;100999.91;;;14.80;92.83
27980;BME280;15315;50.836;4.430;2023-04-06T11:01:16;100978.41;;;13.79;100.00
27980;BME280;15315;50.836;4.430;2023-04-06T11:11:21;100971.75;;;13.72;97.98
27980;BME280;15315;50.836;4.430;2023-04-06T11:21:41;100967.16;;;14.50;92.34
27980;BME280;15315;50.836;4.430;2023-04-06T11:31:48;100949.34;;;14.68;92.42
27980;BME280;15315;50.836;4.430;2023-04-06T11:41:53;100940.94;;;14.29;92.78
27980;BME280;15315;50.836;4.430;2023-04-06T11:51:55;100936.13;;;14.21;94.41
27980;BME280;15315;50.836;4.430;2023-04-06T12:01:57;100933.00;;;14.91;94.65
27980;BME280;15315;50.836;4.430;2023-04-06T12:11:57;100926.50;;;14.17;100.00
27980;BME280;15315;50.836;4.430;2023-04-06T12:21:57;100919.41;;;13.72;100.00
27980;BME280;15315;50.836;4.430;2023-04-06T12:31:59;100911.88;;;13.86;100.00
27980;BME280;15315;50.836;4.430;2023-04-06T12:42:01;100905.19;;;13.46;100.00
27980;BME280;15315;50.836;4.430;2023-04-06T12:52:03;100901.44;;;12.68;100.00
27980;BME280;15315;50.836;4.430;2023-04-06T13:02:03;100893.69;;;12.51;100.00
27980;BME280;15315;50.836;4.430;2023-04-06T13:12:04;100892.44;;;12.44;100.00
27980;BME280;15315;50.836;4.430;2023-04-06T13:22:05;100876.47;;;12.64;100.00
27980;BME280;15315;50.836;4.430;2023-04-06T13:32:05;100881.50;;;12.69;100.00
27980;BME280;15315;50.836;4.430;2023-04-06T13:42:06;100867.13;;;13.14;100.00
27980;BME280;15315;50.836;4.430;2023-04-06T13:52:07;100857.97;;;13.72;100.00
27980;BME280;15315;50.836;4.430;2023-04-06T14:02:09;100852.88;;;13.23;100.00
27980;BME280;15315;50.836;4.430;2023-04-06T14:12:10;100852.50;;;13.28;100.00
27980;BME280;15315;50.836;4.430;2023-04-06T14:22:10;100850.50;;;12.96;100.00
27980;BME280;15315;50.836;4.430;2023-04-06T14:32:11;100843.03;;;13.55;100.00
27980;BME280;15315;50.836;4.430;2023-04-06T14:42:11;100844.41;;;12.82;100.00
27980;BME280;15315;50.836;4.430;2023-04-06T14:52:12;100843.13;;;12.98;100.00
27980;BME280;15315;50.836;4.430;2023-04-06T15:02:12;100829.03;;;13.73;100.00
27980;BME280;15315;50.836;4.430;2023-04-06T15:12:12;100828.03;;;13.63;100.00
27980;BME280;15315;50.836;4.430;2023-04-06T15:22:13;100823.31;;;13.87;100.00
27980;BME280;15315;50.836;4.430;2023-04-06T15:32:13;100804.03;;;14.55;100.00
27980;BME280;15315;50.836;4.430;2023-04-06T15:42:14;100808.72;;;15.24;100.00
27980;BME280;15315;50.836;4.430;2023-04-06T15:52:14;100813.25;;;14.73;100.00
27980;BME280;15315;50.836;4.430;2023-04-06T16:02:15;100809.03;;;15.52;100.00
27980;BME280;15315;50.836;4.430;2023-04-06T16:12:16;100806.56;;;15.18;100.00
27980;BME280;15315;50.836;4.430;2023-04-06T16:22:16;100800.91;;;15.31;100.00
27980;BME280;15315;50.836;4.430;2023-04-06T16:32:17;100794.97;;;15.86;100.00
27980;BME280;15315;50.836;4.430;2023-04-06T16:42:19;100795.13;;;16.14;100.00
27980;BME280;15315;50.836;4.430;2023-04-06T16:52:19;100802.69;;;15.81;100.00
27980;BME280;15315;50.836;4.430;2023-04-06T17:02:20;100804.91;;;15.57;100.00
27980;BME280;15315;50.836;4.430;2023-04-06T17:12:20;100806.13;;;15.43;100.00
27980;BME280;15315;50.836;4.430;2023-04-06T17:22:21;100811.00;;;14.99;100.00
27980;BME280;15315;50.836;4.430;2023-04-06T17:32:21;100803.47;;;15.32;100.00
27980;BME280;15315;50.836;4.430;2023-04-06T17:42:21;100813.78;;;15.59;100.00
27980;BME280;15315;50.836;4.430;2023-04-06T17:52:22;100818.31;;;15.49;100.00
27980;BME280;15315;50.836;4.430;2023-04-06T18:02:22;100820.41;;;14.95;100.00
27980;BME280;15315;50.836;4.430;2023-04-06T18:12:22;100826.41;;;14.25;100.00
27980;BME280;15315;50.836;4.430;2023-04-06T18:22:23;100822.47;;;14.29;100.00
27980;BME280;15315;50.836;4.430;2023-04-06T18:32:23;100838.69;;;14.08;100.00
27980;BME280;15315;50.836;4.430;2023-04-06T18:42:29;100853.22;;;14.07;100.00
27980;BME280;15315;50.836;4.430;2023-04-06T18:52:29;100878.03;;;13.70;100.00
27980;BME280;15315;50.836;4.430;2023-04-06T19:02:30;100895.31;;;13.12;100.00
27980;BME280;15315;50.836;4.430;2023-04-06T19:12:33;100909.13;;;12.61;100.00
27980;BME280;15315;50.836;4.430;2023-04-06T19:22:35;100905.28;;;13.22;100.00
27980;BME280;15315;50.836;4.430;2023-04-06T19:32:42;100917.16;;;13.99;100.00
27980;BME280;15315;50.836;4.430;2023-04-06T19:42:43;100921.78;;;14.41;100.00
27980;BME280;15315;50.836;4.430;2023-04-06T19:52:43;100925.03;;;14.13;100.00
27980;BME280;15315;50.836;4.430;2023-04-06T20:02:44;100944.72;;;13.48;100.00
27980;BME280;15315;50.836;4.430;2023-04-06T20:12:45;100950.59;;;13.31;100.00
27980;BME280;15315;50.836;4.430;2023-04-06T20:22:45;100948.44;;;12.78;100.00
27980;BME280;15315;50.836;4.430;2023-04-06T20:32:49;100981.34;;;13.19;100.00
27980;BME280;15315;50.836;4.430;2023-04-06T20:42:49;100974.50;;;13.03;100.00
27980;BME280;15315;50.836;4.430;2023-04-06T20:52:59;100985.81;;;12.73;100.00
27980;BME280;15315;50.836;4.430;2023-04-06T21:02:59;101002.22;;;11.59;100.00
27980;BME280;15315;50.836;4.430;2023-04-06T21:13:00;101007.16;;;12.03;100.00
27980;BME280;15315;50.836;4.430;2023-04-06T21:23:00;101003.06;;;11.85;100.00
27980;BME280;15315;50.836;4.430;2023-04-06T21:33:02;101005.47;;;12.38;100.00
27980;BME280;15315;50.836;4.430;2023-04-06T21:43:03;101000.06;;;12.75;100.00
27980;BME280;15315;50.836;4.430;2023-04-06T21:53:03;100998.63;;;13.06;100.00
27980;BME280;15315;50.836;4.430;2023-04-06T22:03:03;101007.50;;;13.42;100.00
27980;BME280;15315;50.836;4.430;2023-04-06T22:13:04;101003.84;;;13.20;100.00
27980;BME280;15315;50.836;4.430;2023-04-06T22:23:04;100991.31;;;12.95;100.00
27980;BME280;15315;50.836;4.430;2023-04-06T22:33:05;101002.50;;;12.90;100.00
27980;BME280;15315;50.836;4.430;2023-04-06T22:43:05;101006.38;;;13.34;100.00
27980;BME280;15315;50.836;4.430;2023-04-06T22:53:06;101016.47;;;13.43;100.00
27980;BME280;15315;50.836;4.430;2023-04-06T23:03:06;101001.16;;;13.54;100.00
27980;BME280;15315;50.836;4.430;2023-04-06T23:13:07;101001.38;;;13.17;100.00
27980;BME280;15315;50.836;4.430;2023-04-06T23:23:08;101005.78;;;12.83;100.00
27980;BME280;15315;50.836;4.430;2023-04-06T23:33:08;101007.00;;;12.43;100.00
27980;BME280;15315;50.836;4.430;2023-04-06T23:43:09;101008.63;;;12.69;100.00
27980;BME280;15315;50.836;4.430;2023-04-06T23:53:09;101012.44;;;12.66;100.00
